Time;durP1;ratioP1;P1;durP2;ratioP2;P2;SDS_P1;SDS_P2;PMS_P1;PMS_P2;Temp;Humidity;BMP_temperature;BMP_pressure;BME280_temperature;BME280_humidity;BME280_pressure;Samples;Min_cycle;Max_cycle;Signal;HPM_P1;HPM_P2
2023/07/13 00:00:19;;;;;;;9.65;6.90;;;;;;;;;;5016867;28;20053;-80
2023/07/13 00:02:44;;;;;;;9.85;6.40;;;;;;;;;;5034041;28;20457;-80
2023/07/13 00:05:10;;;;;;;10.10;6.90;;;;;;;;;;5016201;28;20029;-81
2023/07/13 00:07:35;;;;;;;10.68;6.35;;;;;;;;;;5015887;28;20053;-81
2023/07/13 00:10:02;;;;;;;9.98;6.03;;;;;;;;;;4999741;28;20034;-81
2023/07/13 00:12:28;;;;;;;9.05;6.32;;;;;;;;;;4999978;28;20106;-80
2023/07/13 00:14:56;;;;;;;13.60;7.10;;;;;;;;;;5016094;28;20433;-81
2023/07/13 00:17:21;;;;;;;10.23;6.55;;;;;;;;;;5016165;28;20061;-80
2023/07/13 00:19:47;;;;;;;8.43;5.88;;;;;;;;;;5016249;28;20118;-81
2023/07/13 00:22:13;;;;;;;10.65;6.35;;;;;;;;;;5034266;28;20079;-81
2023/07/13 00:24:41;;;;;;;13.35;7.45;;;;;;;;;;5016308;28;20029;-81
2023/07/13 00:27:08;;;;;;;15.13;7.82;;;;;;;;;;5033511;28;20076;-81
2023/07/13 00:29:34;;;;;;;17.45;8.70;;;;;;;;;;5016194;28;20116;-80
2023/07/13 00:31:59;;;;;;;10.10;8.07;;;;;;;;;;5035321;28;20116;-81
2023/07/13 00:34:26;;;;;;;15.68;8.10;;;;;;;;;;5037578;28;20021;-80
2023/07/13 00:36:51;;;;;;;11.55;8.02;;;;;;;;;;5019690;28;20364;-80
2023/07/13 00:39:16;;;;;;;12.80;8.43;;;;;;;;;;5019623;28;20036;-79
2023/07/13 00:41:43;;;;;;;17.45;9.30;;;;;;;;;;5020218;28;20030;-80
2023/07/13 00:44:18;;;;;;;15.02;9.10;;;;;;;;;;5037132;28;20374;-81
2023/07/13 00:46:44;;;;;;;14.85;8.93;;;;;;;;;;5019817;28;20063;-80
2023/07/13 00:49:13;;;;;;;16.17;9.32;;;;;;;;;;5019477;28;20034;-80
2023/07/13 00:51:47;;;;;;;16.10;9.43;;;;;;;;;;5003338;28;20084;-80
2023/07/13 00:54:26;;;;;;;15.32;9.82;;;;;;;;;;5003287;28;20087;-80
2023/07/13 00:56:54;;;;;;;17.43;10.27;;;;;;;;;;5019712;28;20124;-80
2023/07/13 00:59:20;;;;;;;15.18;9.70;;;;;;;;;;5003449;28;20025;-80
2023/07/13 01:01:45;;;;;;;22.75;10.02;;;;;;;;;;5003276;28;20060;-78
2023/07/13 01:04:12;;;;;;;13.02;9.02;;;;;;;;;;5019217;28;20112;-78
2023/07/13 01:06:38;;;;;;;16.10;9.82;;;;;;;;;;5002282;28;20389;-80
2023/07/13 01:09:04;;;;;;;18.88;10.50;;;;;;;;;;5002932;28;20021;-81
2023/07/13 01:11:29;;;;;;;15.48;10.15;;;;;;;;;;5002668;28;20048;-78
2023/07/13 01:13:55;;;;;;;16.75;10.32;;;;;;;;;;5036645;28;20028;-79
2023/07/13 01:16:26;;;;;;;20.52;10.48;;;;;;;;;;5036386;28;20022;-79
2023/07/13 01:18:51;;;;;;;17.08;12.07;;;;;;;;;;5002483;28;20123;-79
2023/07/13 01:21:18;;;;;;;17.85;11.27;;;;;;;;;;5036631;28;20114;-80
2023/07/13 01:23:44;;;;;;;22.73;11.98;;;;;;;;;;5036617;28;20025;-80
2023/07/13 01:26:10;;;;;;;17.17;11.57;;;;;;;;;;5018993;28;20036;-79
2023/07/13 01:28:36;;;;;;;17.75;12.32;;;;;;;;;;5035584;28;20120;-80
2023/07/13 01:31:02;;;;;;;17.40;12.10;;;;;;;;;;5036548;28;20124;-79
2023/07/13 01:33:27;;;;;;;27.20;12.95;;;;;;;;;;5035974;28;20492;-79
2023/07/13 01:35:53;;;;;;;20.48;12.13;;;;;;;;;;5036192;28;20033;-79
2023/07/13 01:38:20;;;;;;;18.70;12.40;;;;;;;;;;5036420;28;20024;-79
2023/07/13 01:40:45;;;;;;;21.98;12.40;;;;;;;;;;5018636;28;20021;-79
2023/07/13 01:43:11;;;;;;;19.70;12.48;;;;;;;;;;5018267;28;20025;-79
2023/07/13 01:45:37;;;;;;;21.75;12.27;;;;;;;;;;5018362;28;20026;-80
2023/07/13 01:48:02;;;;;;;20.17;12.77;;;;;;;;;;5035773;28;20060;-80
2023/07/13 01:50:28;;;;;;;19.42;12.13;;;;;;;;;;5036259;28;20087;-81
2023/07/13 01:52:53;;;;;;;21.05;12.70;;;;;;;;;;5035976;28;20033;-81
2023/07/13 01:55:20;;;;;;;23.00;12.70;;;;;;;;;;5018239;28;20079;-81
2023/07/13 01:57:46;;;;;;;17.70;12.18;;;;;;;;;;5018234;28;20544;-81
2023/07/13 02:00:12;;;;;;;22.67;13.05;;;;;;;;;;5001960;28;20080;-80
2023/07/13 02:02:38;;;;;;;19.08;11.90;;;;;;;;;;5018361;28;20112;-81
2023/07/13 02:05:03;;;;;;;18.40;11.88;;;;;;;;;;5035701;28;20420;-80
2023/07/13 02:07:29;;;;;;;28.70;12.50;;;;;;;;;;5018294;28;20427;-80
2023/07/13 02:09:54;;;;;;;24.05;12.85;;;;;;;;;;5017949;28;20024;-81
2023/07/13 02:12:19;;;;;;;20.35;12.07;;;;;;;;;;5017882;28;20460;-81
2023/07/13 02:14:46;;;;;;;20.60;12.02;;;;;;;;;;5035382;28;20025;-79
2023/07/13 02:17:12;;;;;;;19.95;12.60;;;;;;;;;;5017557;28;20025;-79
2023/07/13 02:19:37;;;;;;;18.15;12.60;;;;;;;;;;5018194;28;20032;-79
2023/07/13 02:22:03;;;;;;;19.50;12.10;;;;;;;;;;5036380;28;20025;-79
2023/07/13 02:24:28;;;;;;;21.17;12.23;;;;;;;;;;5036519;28;20026;-80
2023/07/13 02:26:54;;;;;;;16.10;12.48;;;;;;;;;;5017933;28;20022;-80
2023/07/13 02:29:19;;;;;;;18.35;12.18;;;;;;;;;;5035174;28;20108;-79
2023/07/13 02:31:45;;;;;;;19.15;12.20;;;;;;;;;;5034889;28;20029;-79
2023/07/13 02:34:10;;;;;;;16.60;11.77;;;;;;;;;;5017465;28;20022;-80
2023/07/13 02:36:35;;;;;;;24.00;12.05;;;;;;;;;;5035193;28;20514;-80
2023/07/13 02:39:02;;;;;;;19.02;11.40;;;;;;;;;;5017392;28;20057;-80
2023/07/13 02:41:28;;;;;;;17.25;11.63;;;;;;;;;;5034968;28;20029;-79
2023/07/13 02:43:53;;;;;;;17.35;10.60;;;;;;;;;;5014839;28;20107;-80
2023/07/13 02:46:19;;;;;;;22.27;10.70;;;;;;;;;;5013795;28;20038;-80
2023/07/13 02:48:45;;;;;;;19.83;9.93;;;;;;;;;;5013995;28;20129;-80
2023/07/13 02:51:10;;;;;;;19.35;10.18;;;;;;;;;;5014679;28;20061;-80
2023/07/13 02:53:36;;;;;;;17.50;10.48;;;;;;;;;;5013488;28;20037;-80
2023/07/13 02:56:02;;;;;;;17.08;9.85;;;;;;;;;;5014619;28;20045;-80
2023/07/13 02:58:27;;;;;;;12.65;9.07;;;;;;;;;;5013686;28;20030;-80
2023/07/13 03:00:52;;;;;;;17.98;9.20;;;;;;;;;;5014868;28;20369;-80
2023/07/13 03:03:18;;;;;;;13.35;8.95;;;;;;;;;;5015195;28;20026;-80
2023/07/13 03:05:44;;;;;;;14.80;9.02;;;;;;;;;;5013734;28;20037;-80
2023/07/13 03:08:10;;;;;;;13.23;9.10;;;;;;;;;;5013683;28;20037;-80
2023/07/13 03:10:35;;;;;;;11.07;8.35;;;;;;;;;;5013706;28;20030;-80
2023/07/13 03:13:01;;;;;;;19.00;8.60;;;;;;;;;;5014797;28;20093;-80
2023/07/13 03:15:26;;;;;;;14.10;8.90;;;;;;;;;;5014470;28;20030;-79
2023/07/13 03:17:52;;;;;;;13.05;8.57;;;;;;;;;;5014518;28;20139;-80
2023/07/13 03:20:18;;;;;;;17.13;9.20;;;;;;;;;;5014565;28;20057;-79
2023/07/13 03:22:43;;;;;;;12.88;9.75;;;;;;;;;;5014617;28;20059;-80
2023/07/13 03:25:09;;;;;;;14.40;9.57;;;;;;;;;;5019172;28;20026;-80
2023/07/13 03:27:34;;;;;;;10.98;8.63;;;;;;;;;;5014663;28;20033;-80
2023/07/13 03:29:59;;;;;;;14.57;8.85;;;;;;;;;;5013304;28;20053;-80
2023/07/13 03:32:25;;;;;;;18.55;9.63;;;;;;;;;;5014429;28;20058;-80
2023/07/13 03:34:50;;;;;;;19.05;11.15;;;;;;;;;;5014641;28;20449;-81
2023/07/13 03:37:16;;;;;;;19.83;13.18;;;;;;;;;;5013067;28;20400;-80
2023/07/13 03:39:42;;;;;;;20.92;13.48;;;;;;;;;;5014290;28;20032;-80
2023/07/13 03:42:07;;;;;;;17.38;13.35;;;;;;;;;;5014802;28;20041;-80
2023/07/13 03:44:32;;;;;;;23.00;12.48;;;;;;;;;;5025978;28;20037;-80
2023/07/13 03:46:58;;;;;;;21.58;12.32;;;;;;;;;;5034029;28;20037;-81
2023/07/13 03:49:23;;;;;;;23.42;13.95;;;;;;;;;;5000001;28;20424;-80
2023/07/13 03:51:49;;;;;;;19.63;13.23;;;;;;;;;;5015575;28;20148;-81
2023/07/13 03:54:14;;;;;;;21.45;13.07;;;;;;;;;;5034132;28;20449;-81
2023/07/13 03:56:40;;;;;;;18.45;13.20;;;;;;;;;;5033812;28;20087;-80
2023/07/13 03:59:05;;;;;;;21.27;13.00;;;;;;;;;;5033663;28;20338;-78
2023/07/13 04:01:30;;;;;;;22.05;12.43;;;;;;;;;;5034023;28;20108;-78
2023/07/13 04:03:56;;;;;;;25.73;12.57;;;;;;;;;;5016191;28;20407;-80
2023/07/13 04:06:29;;;;;;;15.93;11.40;;;;;;;;;;5018825;28;20052;-81
2023/07/13 04:08:58;;;;;;;14.35;11.07;;;;;;;;;;5020314;28;20032;-81
2023/07/13 04:11:24;;;;;;;15.75;10.90;;;;;;;;;;5004317;28;20060;-81
2023/07/13 04:13:50;;;;;;;22.80;12.35;;;;;;;;;;5019832;28;20029;-81
2023/07/13 04:16:15;;;;;;;19.15;11.57;;;;;;;;;;5038221;28;20030;-81
2023/07/13 04:18:41;;;;;;;17.85;12.10;;;;;;;;;;5019979;28;20025;-78
2023/07/13 04:21:06;;;;;;;25.35;11.93;;;;;;;;;;5020200;28;20475;-80
2023/07/13 04:23:32;;;;;;;16.70;12.40;;;;;;;;;;5038107;28;20080;-80
2023/07/13 04:25:57;;;;;;;17.88;12.10;;;;;;;;;;5037801;28;20087;-81
2023/07/13 04:28:23;;;;;;;20.23;13.07;;;;;;;;;;5037220;28;20026;-81
2023/07/13 04:30:49;;;;;;;15.68;11.82;;;;;;;;;;5003573;28;20028;-80
2023/07/13 04:33:16;;;;;;;20.27;12.13;;;;;;;;;;5019837;28;20018;-81
2023/07/13 04:35:42;;;;;;;22.42;11.95;;;;;;;;;;5019874;28;20441;-81
2023/07/13 04:38:11;;;;;;;18.27;11.70;;;;;;;;;;5037262;28;20368;-80
2023/07/13 04:40:36;;;;;;;17.27;12.27;;;;;;;;;;5037443;28;20392;-78
2023/07/13 04:43:02;;;;;;;20.52;13.50;;;;;;;;;;5019569;28;20026;-80
2023/07/13 04:45:27;;;;;;;32.03;14.20;;;;;;;;;;5037189;28;20387;-80
2023/07/13 04:47:52;;;;;;;21.67;14.80;;;;;;;;;;5019768;28;20028;-81
2023/07/13 04:50:22;;;;;;;21.65;14.90;;;;;;;;;;5037170;28;20361;-87
2023/07/13 04:52:51;;;;;;;21.33;13.73;;;;;;;;;;5020236;28;20116;-87
2023/07/13 04:55:17;;;;;;;25.23;13.48;;;;;;;;;;5020076;28;20025;-86
2023/07/13 04:57:42;;;;;;;20.63;13.48;;;;;;;;;;5036419;28;20040;-87
2023/07/13 05:00:09;;;;;;;21.23;12.70;;;;;;;;;;5037413;28;20030;-87
2023/07/13 05:02:35;;;;;;;21.80;13.30;;;;;;;;;;5036833;28;20025;-85
2023/07/13 05:05:01;;;;;;;21.45;12.80;;;;;;;;;;5036967;28;20116;-86
2023/07/13 05:07:26;;;;;;;24.20;14.70;;;;;;;;;;5036606;28;20115;-85
2023/07/13 05:09:52;;;;;;;21.70;14.55;;;;;;;;;;5003006;28;20510;-87
2023/07/13 05:12:17;;;;;;;26.10;15.00;;;;;;;;;;5018792;28;20049;-86
2023/07/13 05:14:43;;;;;;;22.00;14.48;;;;;;;;;;5036785;28;20033;-86
2023/07/13 05:17:09;;;;;;;25.45;14.25;;;;;;;;;;5035939;28;20128;-86
2023/07/13 05:19:34;;;;;;;20.45;13.38;;;;;;;;;;5002739;28;20034;-86
2023/07/13 05:22:00;;;;;;;22.85;13.90;;;;;;;;;;5018899;28;20098;-86
2023/07/13 05:24:25;;;;;;;23.33;13.02;;;;;;;;;;5036650;28;20419;-85
2023/07/13 05:26:51;;;;;;;26.80;15.27;;;;;;;;;;5019332;28;20117;-86
2023/07/13 05:29:16;;;;;;;22.02;13.35;;;;;;;;;;5036860;28;20419;-86
2023/07/13 05:31:41;;;;;;;22.60;11.40;;;;;;;;;;5036484;28;20033;-87
2023/07/13 05:34:07;;;;;;;17.88;13.13;;;;;;;;;;5036559;28;20456;-82
2023/07/13 05:36:32;;;;;;;12.98;10.13;;;;;;;;;;5018618;28;20069;-80
2023/07/13 05:38:58;;;;;;;21.88;11.43;;;;;;;;;;5036123;28;20025;-80
2023/07/13 05:41:23;;;;;;;13.80;10.20;;;;;;;;;;5018225;28;20029;-81
2023/07/13 05:43:48;;;;;;;24.05;10.68;;;;;;;;;;5035649;28;20049;-80
2023/07/13 05:46:14;;;;;;;13.52;10.10;;;;;;;;;;5002016;28;20033;-79
2023/07/13 05:48:39;;;;;;;16.05;10.38;;;;;;;;;;5036548;28;20136;-80
2023/07/13 05:51:05;;;;;;;15.45;12.30;;;;;;;;;;5017981;28;20029;-79
2023/07/13 05:53:30;;;;;;;19.48;12.73;;;;;;;;;;5035668;28;20041;-81
2023/07/13 05:55:56;;;;;;;17.58;12.75;;;;;;;;;;5017896;28;20030;-80
2023/07/13 05:58:21;;;;;;;15.98;12.38;;;;;;;;;;5001966;28;20037;-82
2023/07/13 06:00:47;;;;;;;19.05;11.27;;;;;;;;;;5036217;28;20377;-81
2023/07/13 06:03:12;;;;;;;17.92;12.85;;;;;;;;;;5001816;28;20445;-80
2023/07/13 06:05:38;;;;;;;19.42;11.90;;;;;;;;;;5018067;28;20033;-79
2023/07/13 06:08:04;;;;;;;19.27;12.02;;;;;;;;;;5002058;28;20029;-81
2023/07/13 06:10:29;;;;;;;18.38;12.35;;;;;;;;;;5017684;28;20103;-81
2023/07/13 06:12:55;;;;;;;23.90;11.68;;;;;;;;;;5001370;28;20035;-80
2023/07/13 06:15:20;;;;;;;20.80;12.63;;;;;;;;;;5017617;28;20117;-80
2023/07/13 06:17:46;;;;;;;17.35;10.52;;;;;;;;;;5017699;28;20116;-81
2023/07/13 06:20:18;;;;;;;29.58;11.20;;;;;;;;;;5018053;28;20095;-81
2023/07/13 06:23:05;;;;;;;23.45;11.65;;;;;;;;;;5018827;28;20075;-82
2023/07/13 06:25:38;;;;;;;21.73;11.25;;;;;;;;;;5036197;28;20037;-83
2023/07/13 06:28:04;;;;;;;21.10;10.18;;;;;;;;;;5019500;28;20040;-82
2023/07/13 06:30:57;;;;;;;20.15;10.25;;;;;;;;;;5036012;28;20033;-82
2023/07/13 06:33:25;;;;;;;24.45;10.82;;;;;;;;;;4986348;28;20042;-83
2023/07/13 06:35:51;;;;;;;24.88;10.82;;;;;;;;;;5012542;28;20030;-81
2023/07/13 06:38:16;;;;;;;25.55;12.73;;;;;;;;;;5034698;28;20079;-81
2023/07/13 06:40:42;;;;;;;19.90;10.95;;;;;;;;;;5034914;28;20120;-81
2023/07/13 06:43:07;;;;;;;25.25;13.10;;;;;;;;;;5034581;28;20072;-81
2023/07/13 06:45:39;;;;;;;17.23;10.05;;;;;;;;;;5034468;28;20041;-82
2023/07/13 06:48:05;;;;;;;18.00;8.88;;;;;;;;;;5034681;28;20091;-81
2023/07/13 06:50:32;;;;;;;13.98;9.00;;;;;;;;;;5015832;28;20128;-81
2023/07/13 06:52:59;;;;;;;18.97;10.47;;;;;;;;;;5015831;28;20116;-83
2023/07/13 06:55:25;;;;;;;18.45;9.52;;;;;;;;;;5015750;28;20164;-81
2023/07/13 06:57:50;;;;;;;10.45;7.88;;;;;;;;;;5015630;28;20482;-81
2023/07/13 07:00:16;;;;;;;17.52;9.63;;;;;;;;;;5032904;28;20021;-80
2023/07/13 07:02:41;;;;;;;17.48;9.70;;;;;;;;;;5015177;28;20033;-80
2023/07/13 07:05:07;;;;;;;13.32;10.32;;;;;;;;;;5015332;28;20095;-80
2023/07/13 07:07:32;;;;;;;17.67;11.93;;;;;;;;;;5015154;28;20029;-81
2023/07/13 07:09:58;;;;;;;18.23;10.82;;;;;;;;;;5034525;28;20036;-81
2023/07/13 07:12:23;;;;;;;15.68;10.52;;;;;;;;;;5034331;28;20029;-82
2023/07/13 07:14:48;;;;;;;14.15;10.68;;;;;;;;;;5034310;28;20025;-80
2023/07/13 07:17:15;;;;;;;14.10;10.00;;;;;;;;;;5000351;28;20460;-80
2023/07/13 07:19:41;;;;;;;14.10;10.02;;;;;;;;;;5016949;28;20031;-80
2023/07/13 07:22:06;;;;;;;17.45;9.10;;;;;;;;;;5035521;28;20108;-83
2023/07/13 07:24:32;;;;;;;17.20;9.77;;;;;;;;;;5024277;28;20025;-81
2023/07/13 07:26:57;;;;;;;16.17;9.30;;;;;;;;;;5036299;28;20030;-80
2023/07/13 07:29:26;;;;;;;18.92;8.52;;;;;;;;;;5044604;28;20061;-81
2023/07/13 07:31:51;;;;;;;16.73;7.78;;;;;;;;;;5036262;28;20024;-82
2023/07/13 07:34:17;;;;;;;12.20;8.13;;;;;;;;;;5040332;28;20449;-81
2023/07/13 07:36:42;;;;;;;13.95;9.63;;;;;;;;;;5039434;28;20041;-82
2023/07/13 07:39:08;;;;;;;15.40;9.18;;;;;;;;;;5039966;28;20073;-82
2023/07/13 07:41:33;;;;;;;19.13;10.15;;;;;;;;;;5031418;28;20029;-81
2023/07/13 07:43:58;;;;;;;11.90;9.20;;;;;;;;;;5034706;28;20049;-81
2023/07/13 07:46:24;;;;;;;17.25;9.18;;;;;;;;;;5033098;28;20044;-81
2023/07/13 07:48:49;;;;;;;19.35;9.23;;;;;;;;;;4999971;28;20029;-81
2023/07/13 07:51:15;;;;;;;18.38;9.20;;;;;;;;;;5034293;28;20131;-81
2023/07/13 07:53:40;;;;;;;16.08;8.43;;;;;;;;;;5033877;28;20376;-81
2023/07/13 07:56:06;;;;;;;12.57;9.40;;;;;;;;;;5033706;28;20140;-81
2023/07/13 07:58:31;;;;;;;17.25;9.13;;;;;;;;;;5033746;28;20025;-81
2023/07/13 08:01:05;;;;;;;13.52;9.30;;;;;;;;;;5016100;28;20030;-82
2023/07/13 08:03:31;;;;;;;14.57;8.75;;;;;;;;;;5016871;28;20030;-81
2023/07/13 08:05:57;;;;;;;21.17;9.10;;;;;;;;;;4999491;28;20514;-82
2023/07/13 08:08:22;;;;;;;12.25;9.27;;;;;;;;;;5016730;28;20368;-82
2023/07/13 08:10:48;;;;;;;16.13;9.38;;;;;;;;;;5034210;28;20033;-82
2023/07/13 08:13:13;;;;;;;13.38;8.55;;;;;;;;;;5016639;28;20034;-82
2023/07/13 08:15:38;;;;;;;18.05;9.57;;;;;;;;;;5033816;28;20032;-81
2023/07/13 08:18:04;;;;;;;15.85;8.55;;;;;;;;;;5033566;28;20371;-81
2023/07/13 08:20:29;;;;;;;23.73;9.80;;;;;;;;;;5001260;28;20086;-81
2023/07/13 08:22:55;;;;;;;12.18;8.73;;;;;;;;;;5034773;28;20033;-82
2023/07/13 08:25:21;;;;;;;19.85;8.65;;;;;;;;;;5000129;28;20041;-81
2023/07/13 08:27:47;;;;;;;15.38;8.77;;;;;;;;;;5017316;28;20036;-81
2023/07/13 08:30:13;;;;;;;19.73;9.13;;;;;;;;;;5035332;28;20029;-81
2023/07/13 08:32:38;;;;;;;11.25;8.63;;;;;;;;;;5016587;28;20187;-81
2023/07/13 08:35:05;;;;;;;17.98;8.68;;;;;;;;;;5033629;28;20032;-81
2023/07/13 08:37:30;;;;;;;16.58;8.85;;;;;;;;;;5033363;28;20033;-81
2023/07/13 08:39:56;;;;;;;18.83;7.60;;;;;;;;;;5016052;28;20055;-82
2023/07/13 08:42:37;;;;;;;14.77;7.68;;;;;;;;;;5033441;28;20060;-81
2023/07/13 08:45:12;;;;;;;11.15;7.45;;;;;;;;;;5015656;28;20144;-81
2023/07/13 08:47:39;;;;;;;15.60;7.00;;;;;;;;;;5033591;28;20034;-81
2023/07/13 08:50:05;;;;;;;18.67;7.43;;;;;;;;;;4999652;28;20034;-81
2023/07/13 08:52:38;;;;;;;13.70;6.57;;;;;;;;;;5016315;28;20124;-81
2023/07/13 08:55:11;;;;;;;21.08;7.47;;;;;;;;;;5003144;28;20128;-82
2023/07/13 08:57:36;;;;;;;14.73;6.72;;;;;;;;;;5003753;28;20029;-81
2023/07/13 09:00:04;;;;;;;12.13;7.07;;;;;;;;;;5018770;28;20465;-81
2023/07/13 09:02:44;;;;;;;;;;;;;;;;;;5019987;28;20428;-81
2023/07/13 09:05:22;;;;;;;8.70;6.28;;;;;;;;;;5002625;28;19923;-81
2023/07/13 09:07:56;;;;;;;15.73;6.22;;;;;;;;;;5003321;28;20038;-81
2023/07/13 09:10:41;;;;;;;13.73;6.72;;;;;;;;;;5036985;28;20109;-81
2023/07/13 09:13:48;;;;;;;12.52;7.05;;;;;;;;;;5019139;28;20033;-81
2023/07/13 09:16:13;;;;;;;13.20;6.90;;;;;;;;;;5036470;28;20083;-82
2023/07/13 09:18:42;;;;;;;10.65;6.65;;;;;;;;;;5018795;28;20034;-81
2023/07/13 09:21:10;;;;;;;14.13;7.07;;;;;;;;;;5036549;28;20064;-83
2023/07/13 09:23:36;;;;;;;13.52;7.00;;;;;;;;;;5002690;28;20033;-81
2023/07/13 09:26:06;;;;;;;12.93;6.70;;;;;;;;;;5002734;28;20083;-82
2023/07/13 09:28:40;;;;;;;10.73;6.53;;;;;;;;;;5019069;28;20095;-82
2023/07/13 09:31:23;;;;;;;20.20;6.57;;;;;;;;;;5003103;28;20033;-81
2023/07/13 09:33:50;;;;;;;12.13;6.22;;;;;;;;;;5018758;28;20029;-81
2023/07/13 09:36:30;;;;;;;10.43;6.18;;;;;;;;;;5036313;28;20034;-81
2023/07/13 09:39:08;;;;;;;13.70;6.32;;;;;;;;;;5003401;28;20420;-81
2023/07/13 09:41:55;;;;;;;13.00;6.63;;;;;;;;;;5019082;28;20052;-81
2023/07/13 09:44:36;;;;;;;8.60;5.95;;;;;;;;;;5003162;28;20049;-82
2023/07/13 09:47:02;;;;;;;13.93;6.10;;;;;;;;;;5035945;28;20098;-81
2023/07/13 09:49:37;;;;;;;9.77;6.10;;;;;;;;;;5018592;28;20342;-81
2023/07/13 09:52:05;;;;;;;10.50;6.10;;;;;;;;;;5036523;28;20437;-80
2023/07/13 09:54:34;;;;;;;10.82;5.72;;;;;;;;;;5036335;28;20036;-81
2023/07/13 09:57:00;;;;;;;16.25;5.82;;;;;;;;;;5018809;28;20025;-81
2023/07/13 09:59:36;;;;;;;7.05;4.88;;;;;;;;;;5018464;28;20080;-81
2023/07/13 10:02:02;;;;;;;10.13;4.80;;;;;;;;;;5002356;28;20021;-80
2023/07/13 10:04:32;;;;;;;9.68;5.10;;;;;;;;;;5025857;28;20032;-80
2023/07/13 10:07:13;;;;;;;8.13;4.75;;;;;;;;;;5016297;28;20025;-80
2023/07/13 10:09:38;;;;;;;9.02;4.35;;;;;;;;;;5052000;28;20056;-78
2023/07/13 10:12:12;;;;;;;11.77;4.60;;;;;;;;;;5038177;28;20063;-85
2023/07/13 10:14:39;;;;;;;14.65;4.85;;;;;;;;;;5037749;28;20124;-81
2023/07/13 10:17:04;;;;;;;9.23;4.50;;;;;;;;;;5037571;28;20072;-80
2023/07/13 10:19:32;;;;;;;14.63;4.75;;;;;;;;;;5021186;28;20064;-79
2023/07/13 10:22:14;;;;;;;9.30;4.68;;;;;;;;;;5021806;28;20029;-79
2023/07/13 10:24:40;;;;;;;11.20;5.15;;;;;;;;;;5021274;28;20039;-78
2023/07/13 10:27:12;;;;;;;10.73;5.57;;;;;;;;;;5037030;28;20033;-79
2023/07/13 10:29:42;;;;;;;9.40;4.75;;;;;;;;;;5019351;28;20040;-78
2023/07/13 10:32:12;;;;;;;14.02;5.03;;;;;;;;;;5035885;28;20036;-79
2023/07/13 10:34:37;;;;;;;12.32;4.60;;;;;;;;;;5051580;28;20049;-78
2023/07/13 10:37:03;;;;;;;10.10;4.60;;;;;;;;;;5035801;28;20039;-79
2023/07/13 10:39:28;;;;;;;13.55;4.10;;;;;;;;;;5036023;28;20124;-78
2023/07/13 10:41:59;;;;;;;8.82;4.30;;;;;;;;;;5035729;28;20025;-78
2023/07/13 10:44:28;;;;;;;11.45;4.80;;;;;;;;;;5037154;28;20095;-78
2023/07/13 10:46:58;;;;;;;7.32;4.20;;;;;;;;;;5021326;28;20025;-79
2023/07/13 10:49:24;;;;;;;10.82;4.38;;;;;;;;;;5020981;28;20029;-78
2023/07/13 10:51:51;;;;;;;11.05;4.53;;;;;;;;;;5037245;28;20029;-78
2023/07/13 10:54:22;;;;;;;7.13;4.20;;;;;;;;;;5054685;28;20028;-78
2023/07/13 10:57:10;;;;;;;10.68;4.47;;;;;;;;;;5020735;28;20380;-78
2023/07/13 10:59:36;;;;;;;12.32;4.47;;;;;;;;;;5054382;28;20102;-79
2023/07/13 11:02:09;;;;;;;12.15;4.57;;;;;;;;;;5036704;28;20440;-79
2023/07/13 11:04:57;;;;;;;11.85;4.32;;;;;;;;;;5036197;28;20086;-78
2023/07/13 11:07:23;;;;;;;9.88;4.60;;;;;;;;;;5035153;28;20025;-79
2023/07/13 11:09:57;;;;;;;8.82;4.47;;;;;;;;;;5018757;28;20033;-78
2023/07/13 11:12:22;;;;;;;10.48;4.25;;;;;;;;;;5019428;28;20064;-78
2023/07/13 11:14:54;;;;;;;12.30;4.60;;;;;;;;;;5052089;28;20059;-78
2023/07/13 11:17:49;;;;;;;5.55;3.95;;;;;;;;;;5052540;28;20036;-79
2023/07/13 11:20:14;;;;;;;11.52;4.40;;;;;;;;;;5035248;28;20525;-79
2023/07/13 11:23:08;;;;;;;12.75;4.60;;;;;;;;;;5035972;28;20021;-79
2023/07/13 11:25:34;;;;;;;12.82;5.00;;;;;;;;;;5039046;28;20033;-78
2023/07/13 11:28:06;;;;;;;12.45;4.35;;;;;;;;;;5003364;28;20068;-79
2023/07/13 11:30:37;;;;;;;8.90;4.60;;;;;;;;;;5054171;28;20127;-78
2023/07/13 11:33:10;;;;;;;12.32;4.38;;;;;;;;;;5036778;28;20123;-79
2023/07/13 11:35:38;;;;;;;7.97;3.88;;;;;;;;;;5054048;28;20449;-78
2023/07/13 11:38:08;;;;;;;9.27;4.63;;;;;;;;;;5036783;28;20037;-80
2023/07/13 11:40:34;;;;;;;9.73;4.53;;;;;;;;;;5037008;28;20056;-79
2023/07/13 11:43:01;;;;;;;8.95;4.18;;;;;;;;;;5003198;28;20059;-86
2023/07/13 11:45:28;;;;;;;12.95;4.63;;;;;;;;;;5004196;28;20056;-87
2023/07/13 11:47:53;;;;;;;9.95;4.47;;;;;;;;;;5019598;28;20040;-80
2023/07/13 11:50:20;;;;;;;12.00;4.53;;;;;;;;;;5019712;28;20025;-79
2023/07/13 11:52:46;;;;;;;10.05;4.32;;;;;;;;;;5019993;28;20095;-80
2023/07/13 11:55:14;;;;;;;10.95;4.78;;;;;;;;;;5036114;28;20448;-80
2023/07/13 11:57:43;;;;;;;13.65;4.25;;;;;;;;;;5019427;28;20450;-80
2023/07/13 12:00:14;;;;;;;11.13;4.28;;;;;;;;;;5020413;28;20059;-80
2023/07/13 12:02:42;;;;;;;11.57;4.30;;;;;;;;;;5036482;28;20021;-79
2023/07/13 12:05:12;;;;;;;12.70;4.67;;;;;;;;;;5053931;28;20025;-79
2023/07/13 12:07:38;;;;;;;8.10;3.92;;;;;;;;;;5003356;28;20021;-78
2023/07/13 12:10:25;;;;;;;10.05;4.55;;;;;;;;;;5019411;28;20025;-79
2023/07/13 12:13:00;;;;;;;11.18;4.35;;;;;;;;;;5035669;28;20028;-79
2023/07/13 12:15:38;;;;;;;9.90;4.88;;;;;;;;;;5020238;28;20029;-80
2023/07/13 12:18:14;;;;;;;9.35;4.20;;;;;;;;;;5020646;28;20047;-80
2023/07/13 12:20:39;;;;;;;9.18;4.80;;;;;;;;;;5019953;28;20043;-80
2023/07/13 12:23:05;;;;;;;13.13;4.78;;;;;;;;;;5053369;28;20016;-79
2023/07/13 12:25:31;;;;;;;13.27;4.20;;;;;;;;;;5019436;28;20036;-80
2023/07/13 12:27:56;;;;;;;16.67;4.60;;;;;;;;;;5004133;28;20021;-78
2023/07/13 12:30:33;;;;;;;13.73;4.53;;;;;;;;;;5057280;28;20444;-79
2023/07/13 12:33:08;;;;;;;13.52;5.03;;;;;;;;;;5024008;28;20041;-80
2023/07/13 12:35:44;;;;;;;10.07;4.55;;;;;;;;;;5039926;28;20017;-81
2023/07/13 12:38:10;;;;;;;11.10;4.50;;;;;;;;;;5007306;28;20382;-80
2023/07/13 12:40:36;;;;;;;12.35;4.50;;;;;;;;;;5006472;28;20078;-80
2023/07/13 12:43:04;;;;;;;17.02;4.78;;;;;;;;;;5039596;28;20024;-79
2023/07/13 12:45:29;;;;;;;12.05;4.55;;;;;;;;;;5039385;28;20122;-81
2023/07/13 12:47:59;;;;;;;13.20;4.18;;;;;;;;;;5039291;28;20037;-81
2023/07/13 12:50:29;;;;;;;13.73;4.30;;;;;;;;;;5023447;28;20082;-79
2023/07/13 12:52:59;;;;;;;13.52;4.45;;;;;;;;;;5057305;28;20357;-80
2023/07/13 12:55:25;;;;;;;12.60;4.40;;;;;;;;;;5006634;28;20036;-80
2023/07/13 12:57:58;;;;;;;8.73;4.50;;;;;;;;;;5022668;28;20020;-79
2023/07/13 13:00:33;;;;;;;12.98;4.15;;;;;;;;;;5056956;28;20483;-80
2023/07/13 13:03:03;;;;;;;15.23;4.13;;;;;;;;;;5039064;28;20082;-81
2023/07/13 13:05:29;;;;;;;10.77;4.10;;;;;;;;;;5022856;28;20028;-81
2023/07/13 13:07:55;;;;;;;8.95;4.28;;;;;;;;;;5022725;28;20503;-81
2023/07/13 13:10:21;;;;;;;11.57;4.20;;;;;;;;;;5006048;28;20175;-81
2023/07/13 13:12:46;;;;;;;9.57;4.13;;;;;;;;;;5022516;28;20380;-80
2023/07/13 13:15:12;;;;;;;9.85;3.92;;;;;;;;;;5022354;28;20025;-80
2023/07/13 13:17:37;;;;;;;11.85;4.68;;;;;;;;;;5022224;28;20040;-81
2023/07/13 13:20:20;;;;;;;9.25;4.50;;;;;;;;;;5022251;28;20028;-81
2023/07/13 13:22:46;;;;;;;12.60;4.28;;;;;;;;;;5023165;28;20033;-82
2023/07/13 13:25:12;;;;;;;10.43;4.38;;;;;;;;;;5038577;28;20048;-80
2023/07/13 13:27:37;;;;;;;9.57;4.50;;;;;;;;;;5005865;28;20067;-80
2023/07/13 13:30:03;;;;;;;10.35;4.45;;;;;;;;;;5022209;28;20021;-83
2023/07/13 13:32:28;;;;;;;8.73;4.03;;;;;;;;;;5038677;28;20029;-82
2023/07/13 13:34:54;;;;;;;8.30;4.53;;;;;;;;;;5038538;28;20704;-80
2023/07/13 13:37:21;;;;;;;12.15;4.80;;;;;;;;;;5022184;28;20360;-81
2023/07/13 13:39:48;;;;;;;8.13;4.63;;;;;;;;;;5021437;28;20119;-83
2023/07/13 13:42:13;;;;;;;7.78;4.45;;;;;;;;;;5021945;28;20090;-82
2023/07/13 13:44:40;;;;;;;11.07;4.45;;;;;;;;;;4998450;28;20659;-83
2023/07/13 13:47:11;;;;;;;9.73;4.65;;;;;;;;;;5015386;28;20050;-81
2023/07/13 13:49:38;;;;;;;11.48;4.68;;;;;;;;;;5015488;28;20112;-82
2023/07/13 13:52:04;;;;;;;13.90;4.85;;;;;;;;;;4999014;28;20124;-82
2023/07/13 13:54:29;;;;;;;9.68;4.70;;;;;;;;;;5016338;28;20111;-82
2023/07/13 13:56:55;;;;;;;14.05;4.55;;;;;;;;;;5034304;28;20037;-80
2023/07/13 13:59:21;;;;;;;11.82;4.80;;;;;;;;;;5034851;28;20061;-81
2023/07/13 14:01:50;;;;;;;8.65;4.63;;;;;;;;;;5035849;28;20026;-82
2023/07/13 14:04:18;;;;;;;10.45;5.00;;;;;;;;;;5002903;28;20026;-83
2023/07/13 14:06:44;;;;;;;12.63;5.22;;;;;;;;;;5034728;28;20388;-83
2023/07/13 14:09:11;;;;;;;12.15;5.35;;;;;;;;;;5036712;28;20032;-83
2023/07/13 14:11:36;;;;;;;11.30;4.97;;;;;;;;;;5020585;28;20040;-81
2023/07/13 14:14:04;;;;;;;10.93;4.65;;;;;;;;;;5036156;28;20021;-83
2023/07/13 14:16:31;;;;;;;14.85;4.80;;;;;;;;;;5002927;28;20029;-81
2023/07/13 14:18:59;;;;;;;11.68;4.82;;;;;;;;;;5036750;28;20076;-83
2023/07/13 14:21:25;;;;;;;13.53;5.30;;;;;;;;;;5019205;28;20029;-83
2023/07/13 14:23:51;;;;;;;15.55;5.35;;;;;;;;;;5017658;28;20371;-85
2023/07/13 14:26:18;;;;;;;10.80;4.75;;;;;;;;;;5034330;28;20032;-85
2023/07/13 14:28:45;;;;;;;11.77;5.03;;;;;;;;;;5036330;28;20073;-84